Flight Track Log - Related Links

Times and Time Zones

All times are in EDT time to prevent confusion due to time zone crossing. See the FDX1989 flight status page for this flight to view local times or setup timezone preferences in your user account.

Time Position Orientation Groundspeed Altitude Reporting Facility
EDT Latitude Longitude Course Direction KTS MPH feet Rate Location/Type
Wed 06:39:02 AM 33.6480 -84.4600 274° West 202 232 3,600  Level FlightAware ADS-B
Wed 06:39:32 AM 33.6520 -84.5020 277° West 245 282 6,000 4,800 Climbing FlightAware ADS-B
Wed 06:40:02 AM 33.6550 -84.5430 275° West 266 306 8,400 3,927 Climbing FlightAware ADS-B
Wed 06:40:27 AM 33.6590 -84.5820 277° West 286 329 9,600 1,636 Climbing FlightAware ADS-B
Wed 06:40:57 AM 33.6520 -84.6270 259° West 291 335 9,900 327 Climbing FlightAware ADS-B
Wed 06:41:22 AM 33.6260 -84.6510 218° Southwest 302 348 9,900  Level FlightAware ADS-B
Wed 06:42:07 AM 33.5610 -84.6410 173° South 293 337 9,900 86 Level FlightAware ADS-B
Wed 06:42:32 AM 33.5270 -84.6280 162° South 301 346 10,000  Climbing FlightAware ADS-B
Wed 06:42:42 AM 33.5160 -84.6240 163° South 300 345 9,900 -133 Descending FlightAware ADS-B
Wed 06:43:17 AM 33.4740 -84.6080 162° South 300 345 9,900  Level FlightAware ADS-B
Wed 06:43:37 AM 33.4520 -84.5990 161° South 300 345 9,900  Level FlightAware ADS-B
Wed 06:43:57 AM 33.4290 -84.5910 164° South 300 345 9,900 2,700 Level FlightAware ADS-B
Wed 06:44:37 AM 33.3550 -84.5640 163° South 389 448 12,600 4,376 Climbing FlightAware ADS-B
Wed 06:45:22 AM 33.2570 -84.5290 163° South 423 487 16,100 4,125 Climbing FlightAware ADS-B
Wed 06:45:57 AM 33.1980 -84.5080 163° South 439 505 18,100 3,812 Climbing FlightAware ADS-B
Wed 06:46:47 AM 33.0900 -84.4680 163° South 456 525 21,500 3,667 Climbing FlightAware ADS-B
Wed 06:47:27 AM 33.0080 -84.4430 166° South 461 531 23,600 2,965 Climbing FlightAware ADS-B
Wed 06:48:12 AM 32.9210 -84.4190 167° South 479 551 25,700 2,824 Climbing FlightAware ADS-B
Wed 06:48:52 AM 32.8270 -84.3920 166° South 482 555 27,600 3,225 Climbing FlightAware ADS-B
Wed 06:49:32 AM 32.7380 -84.3670 167° South 482 555 30,000 3,318 Climbing FlightAware ADS-B
Wed 06:50:17 AM 32.6430 -84.3400 167° South 478 550 32,300 2,084 Climbing FlightAware ADS-B
Wed 06:51:07 AM 32.5440 -84.3110 166° South 475 547 33,300 667 Climbing FlightAware ADS-B
Wed 06:51:47 AM 32.4720 -84.2900 166° South 475 547 33,300  Level FlightAware ADS-B
Wed 06:52:27 AM 32.3990 -84.2680 166° South 475 547 33,300  Level FlightAware ADS-B
Wed 06:53:17 AM 32.3090 -84.2420 166° South 475 547 33,300  Level FlightAware ADS-B
Wed 06:53:57 AM 32.2360 -84.2200 166° South 475 547 33,300  Level FlightAware ADS-B
Wed 06:54:37 AM 32.1640 -84.1990 166° South 475 547 33,300  Level FlightAware ADS-B
Wed 06:55:17 AM 32.0910 -84.1770 166° South 475 547 33,300  Level FlightAware ADS-B
Wed 06:56:07 AM 32.0010 -84.1510 166° South 475 547 33,300  Level FlightAware ADS-B
Wed 06:56:47 AM 31.9280 -84.1290 166° South 475 547 33,300  Level FlightAware ADS-B
Wed 06:57:27 AM 31.8560 -84.1080 166° South 475 547 33,300  Level FlightAware ADS-B
Wed 06:58:07 AM 31.7830 -84.0870 166° South 475 547 33,300  Level FlightAware ADS-B
Wed 06:58:47 AM 31.7110 -84.0660 166° South 475 547 33,300  Level FlightAware ADS-B
Wed 06:59:37 AM 31.6200 -84.0390 166° South 475 547 33,300  Level FlightAware ADS-B
Wed 07:00:17 AM 31.5480 -84.0180 166° South 475 547 33,300 1,345 Level FlightAware ADS-B
Wed 07:02:22 AM 31.0880 -83.9070 168° South 473 544 37,000 1,233 Climbing FlightAware ADS-B
Wed 07:03:17 AM 31.0900 -83.9070 360° North 472 543 37,000  Level FlightAware ADS-B
Wed 07:04:02 AM 30.8650 -83.8470 167° South 471 542 37,000  Level FlightAware ADS-B
Wed 07:04:52 AM 30.7580 -83.8170 166° South 471 542 37,000  Level FlightAware ADS-B
Wed 07:05:32 AM 30.7580 -83.8170 166° South 472 543 37,000  Level FlightAware ADS-B
Wed 07:06:17 AM 30.5810 -83.7690 167° South 475 547 37,000  Level FlightAware ADS-B
Wed 07:07:02 AM 30.4830 -83.7280 160° South 484 557 37,000  Level FlightAware ADS-B
Wed 07:07:57 AM 30.3680 -83.6710 157° South 475 547 37,000  Level FlightAware ADS-B
Wed 07:08:42 AM 30.2770 -83.6250 156° South 476 548 37,000  Level FlightAware ADS-B
Wed 07:09:22 AM 30.1930 -83.5830 157° South 474 545 37,000  Level FlightAware ADS-B
Wed 07:10:07 AM 30.1000 -83.5380 157° South 475 547 37,000  Level FlightAware ADS-B
Wed 07:10:47 AM 30.0180 -83.4990 158° South 474 545 37,000  Level FlightAware ADS-B
Wed 07:11:27 AM 29.9350 -83.4580 157° South 472 543 37,000  Level FlightAware ADS-B
Wed 07:12:12 AM 29.8440 -83.4140 157° South 470 541 37,000  Level FlightAware ADS-B
Wed 07:12:52 AM 29.7610 -83.3730 157° South 471 542 37,000  Level FlightAware ADS-B
Wed 07:13:37 AM 29.6700 -83.3280 157° South 471 542 37,000  Level FlightAware ADS-B
Wed 07:14:17 AM 29.5890 -83.2890 157° South 471 542 37,000  Level FlightAware ADS-B
Wed 07:14:57 AM 29.5060 -83.2490 157° South 471 542 37,000  Level FlightAware ADS-B
Wed 07:15:42 AM 29.4150 -83.2050 157° South 469 540 37,000  Level FlightAware ADS-B
Wed 07:16:22 AM 29.3330 -83.1650 157° South 469 540 37,000  Level FlightAware ADS-B
Wed 07:17:07 AM 29.2410 -83.1220 158° South 472 543 37,000  Level FlightAware ADS-B
Wed 07:17:47 AM 29.1580 -83.0810 157° South 472 543 37,000  Level FlightAware ADS-B
Wed 07:19:12 AM 28.9850 -82.9990 157° South 471 542 37,000  Level FlightAware ADS-B
Wed 07:20:22 AM 28.8450 -82.9310 157° South 472 543 37,000  Level FlightAware ADS-B
Wed 07:21:02 AM 28.7640 -82.8920 157° South 472 543 37,000  Level FlightAware ADS-B
Wed 07:21:42 AM 28.6790 -82.8520 158° South 473 544 37,000  Level FlightAware ADS-B
Wed 07:22:27 AM 28.5890 -82.8100 158° South 473 544 37,000  Level FlightAware ADS-B
Wed 07:23:07 AM 28.5080 -82.7720 158° South 470 541 37,000  Level FlightAware ADS-B
Wed 07:23:52 AM 28.4210 -82.7300 157° South 466 536 37,000  Level FlightAware ADS-B
Wed 07:24:32 AM 28.3410 -82.6920 157° South 465 535 37,000  Level FlightAware ADS-B
Wed 07:25:12 AM 28.2580 -82.6530 158° South 466 536 37,000  Level FlightAware ADS-B
Wed 07:25:57 AM 28.1700 -82.6120 158° South 457 526 37,000  Level FlightAware ADS-B
Wed 07:26:37 AM 28.0920 -82.5750 157° South 454 522 37,000  Level FlightAware ADS-B
Wed 07:27:22 AM 28.0020 -82.5340 158° South 460 529 37,000  Level FlightAware ADS-B
Wed 07:28:02 AM 27.9260 -82.5000 158° South 455 524 37,000 -75 Level FlightAware ADS-B
Wed 07:28:42 AM 27.8460 -82.4720 163° South 457 526 36,900 -565 Descending FlightAware ADS-B
Wed 07:29:27 AM 27.7520 -82.4360 161° South 462 532 36,200 -988 Descending FlightAware ADS-B
Wed 07:30:07 AM 27.6710 -82.4070 162° South 466 536 35,500 -988 Descending FlightAware ADS-B
Wed 07:30:52 AM 27.5790 -82.3730 162° South 462 532 34,800 -988 Descending FlightAware ADS-B
Wed 07:31:32 AM 27.5000 -82.3440 162° South 460 529 34,100 -1,059 Descending FlightAware ADS-B
Wed 07:32:17 AM 27.4050 -82.3090 162° South 458 527 33,300 -1,059 Descending FlightAware ADS-B
Wed 07:32:57 AM 27.3280 -82.2810 162° South 465 535 32,600 -1,050 Descending FlightAware ADS-B
Wed 07:33:37 AM 27.2410 -82.2500 162° South 471 542 31,900 -988 Descending FlightAware ADS-B
Wed 07:34:22 AM 27.1480 -82.2160 162° South 476 548 31,200 -988 Descending FlightAware ADS-B
Wed 07:35:02 AM 27.0660 -82.1860 162° South 479 551 30,500 -1,059 Descending FlightAware ADS-B
Wed 07:35:47 AM 26.9670 -82.1500 162° South 480 552 29,700 -1,050 Descending FlightAware ADS-B
Wed 07:36:22 AM 26.9010 -82.1250 161° South 486 559 29,100 -988 Descending FlightAware ADS-B
Wed 07:37:12 AM 26.8070 -82.0490 144° Southeast 508 585 28,300 -1,067 Descending FlightAware ADS-B
Wed 07:37:52 AM 26.7500 -81.9610 126° Southeast 494 568 27,500 -1,137 Descending FlightAware ADS-B
Wed 07:38:47 AM 26.6800 -81.8510 125° Southeast 483 556 26,500 -1,080 Descending FlightAware ADS-B
Wed 07:39:32 AM 26.6200 -81.7600 126° Southeast 478 550 25,700 -1,059 Descending FlightAware ADS-B
Wed 07:40:12 AM 26.5690 -81.6810 126° Southeast 479 551 25,000 -1,500 Descending FlightAware ADS-B
Wed 07:40:52 AM 26.5140 -81.5970 126° Southeast 467 537 23,700 -2,682 Descending FlightAware ADS-B
Wed 07:41:37 AM 26.4600 -81.5120 125° Southeast 452 520 21,200 -3,459 Descending FlightAware ADS-B
Wed 07:42:17 AM 26.4090 -81.4340 126° Southeast 441 507 18,800 -3,459 Descending FlightAware ADS-B
Wed 07:43:02 AM 26.3550 -81.3530 127° Southeast 429 494 16,300 -3,318 Descending FlightAware ADS-B
Wed 07:43:42 AM 26.3100 -81.2820 125° Southeast 419 482 14,100 -3,300 Descending FlightAware ADS-B
Wed 07:44:22 AM 26.2660 -81.2160 127° Southeast 403 464 11,900 -1,553 Descending FlightAware ADS-B
Wed 07:45:07 AM 26.2210 -81.1470 126° Southeast 403 464 11,900 -1,200 Level FlightAware ADS-B
Wed 07:45:47 AM 26.1800 -81.0850 126° Southeast 309 356 10,200 -2,400 Descending FlightAware ADS-B
Wed 07:46:17 AM 26.1550 -81.0480 127° Southeast 306 352 9,100 -1,855 Descending FlightAware ADS-B
Wed 07:46:42 AM 26.1340 -81.0160 126° Southeast 303 349 8,500 -1,309 Descending FlightAware ADS-B
Wed 07:47:12 AM 26.1100 -80.9770 124° Southeast 298 343 7,900 -933 Descending FlightAware ADS-B
Wed 07:47:27 AM 26.1020 -80.9570 114° Southeast 305 351 7,800 -1,200 Descending FlightAware ADS-B
Wed 07:47:52 AM 26.0990 -80.9210 95° East 303 349 7,100 -1,091 Descending FlightAware ADS-B
Wed 07:48:22 AM 26.0970 -80.8740 93° East 303 349 6,800 -300 Descending FlightAware ADS-B
Wed 07:48:52 AM 26.0940 -80.8300 94° East 304 350 6,800 109 Level FlightAware ADS-B
Wed 07:49:17 AM 26.0910 -80.7880 95° East 304 350 6,900 133 Climbing FlightAware ADS-B
Wed 07:49:37 AM 26.0890 -80.7550 94° East 305 351 6,900  Level FlightAware ADS-B
Wed 07:50:02 AM 26.0920 -80.7170 85° East 306 352 6,900  Level FlightAware ADS-B
Wed 07:50:27 AM 26.0970 -80.6780 82° East 306 352 6,900  Level FlightAware ADS-B
Wed 07:50:57 AM 26.1010 -80.6340 84° East 306 352 6,900  Level FlightAware ADS-B
Wed 07:51:27 AM 26.1060 -80.5870 83° East 307 353 6,900  Level FlightAware ADS-B
Wed 07:51:52 AM 26.1100 -80.5430 84° East 308 354 6,900  Level FlightAware ADS-B
Wed 07:52:07 AM 26.1130 -80.5190 82° East 308 354 6,900  Level FlightAware ADS-B
Wed 07:52:32 AM 26.1170 -80.4810 83° East 307 353 6,900  Level FlightAware ADS-B
Wed 07:53:02 AM 26.1220 -80.4340 83° East 308 354 6,900  Level FlightAware ADS-B
Wed 07:53:32 AM 26.1270 -80.3850 84° East 309 356 6,900  Level FlightAware ADS-B
Wed 07:53:57 AM 26.1310 -80.3470 83° East 308 354 6,900  Level FlightAware ADS-B
Wed 07:54:27 AM 26.1360 -80.2990 83° East 309 356 6,900  Level FlightAware ADS-B
Wed 07:54:52 AM 26.1400 -80.2610 83° East 308 354 6,900  Level FlightAware ADS-B
Wed 07:55:07 AM 26.1420 -80.2360 85° East 308 354 6,900 -150 Level FlightAware ADS-B
Wed 07:55:32 AM 26.1460 -80.1970 83° East 295 339 6,800 -100 Descending FlightAware ADS-B
Wed 07:56:07 AM 26.1510 -80.1470 84° East 266 306 6,800 -400 Level FlightAware ADS-B
Wed 07:56:32 AM 26.1530 -80.1130 86° East 260 299 6,400 -982 Descending FlightAware ADS-B
Wed 07:57:02 AM 26.1540 -80.0700 89° East 252 290 5,900 -1,091 Descending FlightAware ADS-B
Wed 07:57:27 AM 26.1550 -80.0390 88° East 249 287 5,400 -1,080 Descending FlightAware ADS-B
Wed 07:57:52 AM 26.1560 -80.0090 88° East 243 280 5,000 -933 Descending FlightAware ADS-B
Wed 07:58:12 AM 26.1570 -79.9830 88° East 237 273 4,700 -933 Descending FlightAware ADS-B
Wed 07:58:37 AM 26.1590 -79.9530 86° East 231 266 4,300 -933 Descending FlightAware ADS-B
Wed 07:58:57 AM 26.1600 -79.9290 87° East 227 261 4,000 -933 Descending FlightAware ADS-B
Wed 07:59:22 AM 26.1530 -79.9050 108° East 215 247 3,600 -1,050 Descending FlightAware ADS-B
Wed 07:59:37 AM 26.1390 -79.8960 150° Southeast 201 231 3,300 -1,050 Descending FlightAware ADS-B
Wed 08:00:02 AM 26.1180 -79.8930 173° South 197 227 2,900 -1,309 Descending FlightAware ADS-B
Wed 08:00:32 AM 26.0880 -79.8970 187° South 206 237 2,100 -1,350 Descending FlightAware ADS-B
Wed 08:00:42 AM 26.0820 -79.9030 222° Southwest 209 241 2,000 -480 Descending FlightAware ADS-B
Wed 08:00:57 AM 26.0760 -79.9190 247° West 211 243 1,900 -343 Descending FlightAware ADS-B
Wed 08:01:17 AM 26.0760 -79.9400 270° West 201 231 1,800  Descending FlightAware ADS-B
Wed 08:01:42 AM 26.0760 -79.9640 270° West 180 207 1,900 92 Climbing FlightAware ADS-B
Wed 08:02:22 AM 26.0760 -80.0020 270° West 171 197 1,900 -86 Level FlightAware ADS-B
Wed 08:02:52 AM 26.0760 -80.0290 270° West 166 191 1,800 -554 Descending FlightAware ADS-B
Wed 08:03:27 AM 26.0760 -80.0550 270° West 137 158 1,300 -771 Descending FlightAware ADS-B
Wed 08:04:02 AM 26.0760 -80.0790 270° West 119 137 900 -600 Descending FlightAware ADS-B
Wed 08:04:27 AM 26.0770 -80.0940 274° West 119 137 700 -600 Descending FlightAware ADS-B
Wed 08:04:42 AM 26.0770 -80.1030 270° West 119 137 500 -600 Descending FlightAware ADS-B
Wed 08:05:07 AM 26.0770 -80.1170 270° West 116 133 300 -343 Descending FlightAware ADS-B
Wed 08:05:52 AM 26.0770 -80.1440 270° West 116 133 100 -267 Descending FlightAware ADS-B
Wed 08:12:00 AM 26.0667 -80.1500 270° West  Level FlightAware Approximate

Login

Don't have an account? Register now (free) for customized features, flight alerts, and more!